Cosco Aden — VRKF9 — position and weather

sailwx.info

Track history (hours):
 
Tides and Currents Weather Stations Pressure Air Temp Water Temp Dewpoint Dewpoint Depression Visibility Wind Speed Wind Dir Waves Ship Positions

Cosco Aden

Last reported at 2017-Mar-17 18:33 UTC. Time now 2017-Mar-27 12:42 UTC.
Position N 22°46' E 120°04'.
Warning: this ship's position is 9 days out of date.

Length 261 m; draft 8.2 m.

Type: Ship (hazmat cat C). MMSI: 477765900.

Date/timePositionNaut miles runAvg speedWind from/ knotsBaromVisibWave heightAir tempDewpointWater temp
2017-Mar-17 18:33N 22°46' E 120°04'1515.0
2017-Mar-17 17:33N 22°33' E 120°12'6 5.8
2017-Mar-17 16:33N 22°34' E 120°19'0 0.2
2017-Mar-17 15:28N 22°34' E 120°19'0 0.0
2017-Mar-17 14:31N 22°34' E 120°19'0 0.0
2017-Mar-17 13:31N 22°34' E 120°19'0 0.0
2017-Mar-17 12:31N 22°34' E 120°19'0 0.0
2017-Mar-17 11:16N 22°34' E 120°19'0 0.0
2017-Mar-17 10:28N 22°34' E 120°19'0 0.0
2017-Mar-17 09:28N 22°34' E 120°19'0 0.0
2017-Mar-17 08:31N 22°34' E 120°19'0 0.0
2017-Mar-17 07:31N 22°34' E 120°19'0 0.0
2017-Mar-17 06:31N 22°34' E 120°19'0 0.0
2017-Mar-17 05:31N 22°34' E 120°19'3 2.7
2017-Mar-17 04:33N 22°33' E 120°17'2 2.0
2017-Mar-17 03:33N 22°32' E 120°15'5 5.0
2017-Mar-17 02:33N 22°34' E 120°10'7 7.3
2017-Mar-17 01:33N 22°41' E 120°06'7 6.8
2017-Mar-17 00:33N 22°47' E 120°03'7 7.2
2017-Mar-16 23:33N 22°53' E 119°59'  
2017-Mar-07 20:00N 48°42' E 176°42'   180 / 221017.0 5.4 3.0 4.0
Track history (hours):
 
Tides and Currents Weather Stations Pressure Air Temp Water Temp Dewpoint Dewpoint Depression Visibility Wind Speed Wind Dir Waves Ship Positions

Cosco Aden

Last reported at 2017-Mar-17 18:33 UTC. Time now 2017-Mar-27 12:42 UTC.
Position N 22°46' E 120°04'.
Warning: this ship's position is 9 days out of date.

Length 261 m; draft 8.2 m.

Type: Ship (hazmat cat C). MMSI: 477765900.

Date/timePositionNaut miles runAvg speedWind from/ knotsBaromVisibWave heightAir tempDewpointWater temp
2017-Mar-17 18:33N 22°46' E 120°04'1515.0
2017-Mar-17 17:33N 22°33' E 120°12'6 5.8
2017-Mar-17 16:33N 22°34' E 120°19'0 0.2
2017-Mar-17 15:28N 22°34' E 120°19'0 0.0
2017-Mar-17 14:31N 22°34' E 120°19'0 0.0
2017-Mar-17 13:31N 22°34' E 120°19'0 0.0
2017-Mar-17 12:31N 22°34' E 120°19'0 0.0
2017-Mar-17 11:16N 22°34' E 120°19'0 0.0
2017-Mar-17 10:28N 22°34' E 120°19'0 0.0
2017-Mar-17 09:28N 22°34' E 120°19'0 0.0
2017-Mar-17 08:31N 22°34' E 120°19'0 0.0
2017-Mar-17 07:31N 22°34' E 120°19'0 0.0
2017-Mar-17 06:31N 22°34' E 120°19'0 0.0
2017-Mar-17 05:31N 22°34' E 120°19'3 2.7
2017-Mar-17 04:33N 22°33' E 120°17'2 2.0
2017-Mar-17 03:33N 22°32' E 120°15'5 5.0
2017-Mar-17 02:33N 22°34' E 120°10'7 7.3
2017-Mar-17 01:33N 22°41' E 120°06'7 6.8
2017-Mar-17 00:33N 22°47' E 120°03'7 7.2
2017-Mar-16 23:33N 22°53' E 119°59'  
2017-Mar-07 20:00N 48°42' E 176°42'   180 / 221017.0 5.4 3.0 4.0

Dump ship's entire track history